Terminal Aerodrome Forecast
Issued by NWS

Home | Current Version | Previous Version | Text Only | Print | Product List | Glossary On
Versions: 1 2 3 4 5 6 7 8 9 10 11 12 13 14 15 16
000
FTUS42 TJSJ 210520
TAFNCM
TAF
TNCM 210520Z 2106/2206 08009KT P6SM FEW020
     FM211300 11012KT P6SM SCT030 SCT070
     FM212300 10008KT P6SM FEW030=

USA.gov is the U.S. government's official web portal to all federal, state and local government web resources and services.